• Join FlightAware (Why Join?)
  • Login
  • US Flag 
12:58PM EDT


 

Airport Tracker/Info


-or-


 

Live Flight TrackerFlight Track Log ✈ CES5696 ✈ 22-Aug-2013 ✈ ZHLY / LYA - ZBAA / PEK

Flight Track Log - Related Links

Times and Time Zones

All times are in EDT time to prevent confusion due to time zone crossing. See the CES5696 flight status page for this flight to view local times or setup timezone preferences in your user account.

Time Position Orientation Groundspeed Altitude Reporting Facility
EDT Latitude Longitude Course Direction KTS MPH feet Rate Location/Type
10:38PM 35.4885 112.9347 31° Northeast  Level Estimated
10:39PM 35.5714 112.9960 31° Northeast  Level Estimated
10:40PM 35.6542 113.0574 31° Northeast  Level Estimated
10:41PM 35.7371 113.1190 31° Northeast  Level Estimated
10:42PM 35.8199 113.1807 31° Northeast  Level Estimated
10:43PM 35.9026 113.2426 31° Northeast  Level Estimated
10:44PM 35.9854 113.3045 31° Northeast  Level Estimated
10:45PM 36.0681 113.3666 31° Northeast  Level Estimated
10:46PM 36.1507 113.4289 31° Northeast  Level Estimated
10:47PM 36.2334 113.4912 31° Northeast  Level Estimated
10:48PM 36.3160 113.5537 31° Northeast  Level Estimated
10:49PM 36.3985 113.6163 31° Northeast  Level Estimated
10:50PM 36.4811 113.6791 31° Northeast  Level Estimated
10:51PM 36.5636 113.7420 31° Northeast  Level Estimated
10:52PM 36.6461 113.8050 32° Northeast  Level Estimated
10:53PM 36.7285 113.8682 32° Northeast  Level Estimated
10:54PM 36.8109 113.9315 32° Northeast  Level Estimated
10:55PM 36.8933 113.9949 32° Northeast  Level Estimated
10:56PM 36.9756 114.0585 32° Northeast  Level Estimated
10:57PM 37.0579 114.1222 32° Northeast  Level Estimated
10:58PM 37.1402 114.1860 32° Northeast  Level Estimated
10:59PM 37.2224 114.2500 32° Northeast  Level Estimated
11:00PM 37.3046 114.3141 32° Northeast  Level Estimated
11:01PM 37.3868 114.3784 32° Northeast  Level Estimated
11:02PM 37.4689 114.4428 32° Northeast  Level Estimated
11:03PM 37.5510 114.5074 32° Northeast  Level Estimated
11:04PM 37.6331 114.5721 32° Northeast  Level Estimated
11:05PM 37.7151 114.6369 32° Northeast  Level Estimated
11:06PM 37.7971 114.7019 32° Northeast  Level Estimated
11:07PM 37.8791 114.7670 32° Northeast  Level Estimated
11:08PM 37.9610 114.8323 32° Northeast  Level Estimated
11:09PM 38.0429 114.8977 32° Northeast  Level Estimated
11:10PM 38.1247 114.9632 32° Northeast  Level Estimated
11:11PM 38.2065 115.0290 32° Northeast  Level Estimated
11:12PM 38.2883 115.0948 32° Northeast  Level Estimated
11:13PM 38.3700 115.1608 32° Northeast  Level Estimated
11:14PM 38.4517 115.2270 32° Northeast  Level Estimated
11:15PM 38.5334 115.2933 32° Northeast  Level Estimated
11:16PM 38.6150 115.3597 32° Northeast  Level Estimated
11:17PM 38.6966 115.4263 32° Northeast  Level Estimated
11:18PM 38.7781 115.4931 33° Northeast  Level Estimated
11:19PM 38.8597 115.5600 33° Northeast  Level Estimated
11:20PM 38.9411 115.6270 33° Northeast  Level Estimated
11:21PM 39.0226 115.6943 33° Northeast  Level Estimated
11:22PM 39.1040 115.7616 33° Northeast  Level Estimated
11:23PM 39.1853 115.8291 33° Northeast  Level Estimated
11:24PM 39.2666 115.8968 33° Northeast  Level Estimated
11:25PM 39.3479 115.9647 33° Northeast  Level Estimated
11:26PM 39.4292 116.0327 33° Northeast  Level Estimated
11:27PM 39.5104 116.1008 33° Northeast  Level Estimated
11:28PM 39.5915 116.1692 33° Northeast  Level Estimated
11:29PM 39.6726 116.2376 33° Northeast  Level Estimated
11:30PM 39.7537 116.3063 33° Northeast  Level Estimated
11:31PM 39.8348 116.3751 33° Northeast  Level Estimated
11:32PM 39.9158 116.4440 33° Northeast  Level Estimated
11:33PM 39.9967 116.5131 33° Northeast  Level Estimated
11:34PM 40.0776 116.5824 33° Northeast  Level Estimated
11:35PM 40.0801 116.5846 33° Northeast  Level Estimated
11:36PM 40.0801 116.5846 288° West  Level Estimated
11:37PM 40.0801 116.5846 288° West  Level Estimated
11:38PM 40.0801 116.5846 288° West  Level Estimated
11:39PM 40.0801 116.5846 288° West  Level Estimated
11:40PM 40.0801 116.5846 288° West  Level Estimated
11:41PM 40.0801 116.5846 288° West  Level Estimated
11:42PM 40.0801 116.5846 288° West  Level Estimated
11:43PM 40.0801 116.5846 288° West  Level Estimated
11:44PM 40.0801 116.5846 288° West  Level Estimated
11:45PM 40.0801 116.5846 288° West  Level Estimated
11:46PM 40.0801 116.5846 288° West  Level Estimated
11:47PM 40.0801 116.5846 288° West  Level Estimated
11:48PM 40.0801 116.5846 288° West  Level Estimated
11:49PM 40.0801 116.5846 288° West  Level Estimated
11:50PM 40.0801 116.5846 288° West  Level Estimated